Time;durP1;ratioP1;P1;durP2;ratioP2;P2;SDS_P1;SDS_P2;PMS_P1;PMS_P2;Temp;Humidity;BMP_temperature;BMP_pressure;BME280_temperature;BME280_humidity;BME280_pressure;Samples;Min_cycle;Max_cycle;Signal;HPM_P1;HPM_P2
2022/03/30 00:02:08;;;;;;;39.00;17.50;;;4.40;99.90;;;;;;5061314;28;20072;-35
2022/03/30 00:04:36;;;;;;;37.17;18.67;;;4.40;99.90;;;;;;5054760;28;20165;-31
2022/03/30 00:07:03;;;;;;;38.60;17.57;;;4.50;99.90;;;;;;5032992;28;20214;-33
2022/03/30 00:09:29;;;;;;;33.47;17.03;;;4.50;99.90;;;;;;5050935;28;20054;-32
2022/03/30 00:11:56;;;;;;;42.37;16.93;;;4.50;99.90;;;;;;5061216;28;20119;-34
2022/03/30 00:14:22;;;;;;;36.13;17.50;;;4.50;99.90;;;;;;5064880;28;20048;-33
2022/03/30 00:16:48;;;;;;;40.13;17.47;;;4.60;99.90;;;;;;5042540;28;20477;-33
2022/03/30 00:19:14;;;;;;;45.80;17.47;;;4.60;99.90;;;;;;5056573;28;20053;-35
2022/03/30 00:21:40;;;;;;;36.17;16.63;;;4.60;99.90;;;;;;5057604;28;20466;-35
2022/03/30 00:24:06;;;;;;;38.67;16.90;;;4.70;99.90;;;;;;5057164;28;20053;-35
2022/03/30 00:26:32;;;;;;;36.77;16.87;;;4.70;99.90;;;;;;5036800;28;20117;-31
2022/03/30 00:28:57;;;;;;;42.50;16.93;;;4.70;99.90;;;;;;5059035;28;20060;-35
2022/03/30 00:31:23;;;;;;;37.47;17.10;;;4.80;99.90;;;;;;5062549;28;20049;-35
2022/03/30 00:33:51;;;;;;;35.47;17.73;;;4.80;99.90;;;;;;5064022;28;20051;-32
2022/03/30 00:36:17;;;;;;;41.77;16.93;;;4.80;99.90;;;;;;5045705;28;20048;-32
2022/03/30 00:38:43;;;;;;;37.47;17.60;;;4.80;99.90;;;;;;5060406;28;20376;-35
2022/03/30 00:41:09;;;;;;;39.77;17.83;;;4.80;99.90;;;;;;5057677;28;20102;-33
2022/03/30 00:43:35;;;;;;;38.43;17.97;;;4.80;99.90;;;;;;5053419;28;20087;-34
2022/03/30 00:46:00;;;;;;;40.50;17.30;;;4.80;99.90;;;;;;5065087;28;20053;-35
2022/03/30 00:48:26;;;;;;;39.57;17.83;;;4.90;99.90;;;;;;5047753;28;20049;-34
2022/03/30 00:50:52;;;;;;;38.13;17.13;;;4.90;99.90;;;;;;5059790;28;20052;-32
2022/03/30 00:53:18;;;;;;;35.37;16.80;;;4.90;99.90;;;;;;5046454;28;20044;-34
2022/03/30 00:55:44;;;;;;;40.37;17.53;;;4.90;99.90;;;;;;5058702;28;20045;-33
2022/03/30 00:58:09;;;;;;;41.23;17.90;;;4.90;99.90;;;;;;5037692;28;20103;-32
2022/03/30 01:00:35;;;;;;;37.90;18.57;;;4.90;99.90;;;;;;5052429;28;20257;-35
2022/03/30 01:03:01;;;;;;;36.70;18.27;;;4.90;99.90;;;;;;5060363;28;20052;-32
2022/03/30 01:05:27;;;;;;;34.27;17.37;;;4.90;99.90;;;;;;5052927;28;20044;-32
2022/03/30 01:07:57;;;;;;;35.27;17.67;;;4.90;99.90;;;;;;5043101;28;20048;-33
2022/03/30 01:10:24;;;;;;;40.83;18.95;;;4.90;99.90;;;;;;5057465;28;20048;-32
2022/03/30 01:12:52;;;;;;;40.70;17.40;;;4.90;99.90;;;;;;5062269;28;20055;-33
2022/03/30 01:15:18;;;;;;;45.47;19.17;;;4.90;99.90;;;;;;5064341;28;20130;-34
2022/03/30 01:17:43;;;;;;;40.03;18.27;;;4.90;99.90;;;;;;5045974;28;20048;-34
2022/03/30 01:20:11;;;;;;;39.17;18.30;;;4.90;99.90;;;;;;5063135;28;20067;-31
2022/03/30 01:22:37;;;;;;;38.33;17.77;;;4.90;99.90;;;;;;5048250;28;20056;-34
2022/03/30 01:25:03;;;;;;;35.27;18.00;;;4.90;99.90;;;;;;5052244;28;20045;-35
2022/03/30 01:27:29;;;;;;;35.30;17.93;;;5.00;99.90;;;;;;5040602;28;20048;-31
2022/03/30 01:32:41;;;;;;;38.27;18.77;;;5.00;99.90;;;;;;5062367;28;20051;-33
2022/03/30 01:35:07;;;;;;;38.07;17.30;;;5.00;99.90;;;;;;5063681;28;20178;-35
2022/03/30 01:37:33;;;;;;;38.23;17.97;;;5.10;99.90;;;;;;5043844;28;20051;-31
2022/03/30 01:40:00;;;;;;;34.73;17.13;;;5.20;99.90;;;;;;5053918;28;20048;-35
2022/03/30 01:42:28;;;;;;;41.80;18.13;;;5.10;99.90;;;;;;5057407;28;20097;-31
2022/03/30 01:44:54;;;;;;;42.37;18.07;;;5.00;99.90;;;;;;5051945;28;20518;-35
2022/03/30 01:47:20;;;;;;;37.30;18.43;;;5.10;99.90;;;;;;5046380;28;20570;-32
2022/03/30 01:49:46;;;;;;;43.63;18.50;;;5.10;99.90;;;;;;5056890;28;20052;-33
2022/03/30 01:52:15;;;;;;;41.23;19.47;;;5.10;99.90;;;;;;5062459;28;20500;-33
2022/03/30 01:54:42;;;;;;;43.73;18.53;;;5.30;99.90;;;;;;5058781;28;20412;-34
2022/03/30 01:57:09;;;;;;;39.53;17.87;;;5.10;99.90;;;;;;5039129;28;20675;-32
2022/03/30 01:59:35;;;;;;;37.80;17.97;;;5.20;99.90;;;;;;5054587;28;20427;-32
2022/03/30 02:02:02;;;;;;;32.87;15.87;;;5.20;99.90;;;;;;5048647;28;20115;-34
2022/03/30 02:04:29;;;;;;;35.87;15.97;;;5.20;99.90;;;;;;5060780;28;20136;-35
2022/03/30 02:06:55;;;;;;;33.83;13.83;;;5.20;99.90;;;;;;5037343;28;20131;-35
2022/03/30 02:09:20;;;;;;;18.83;8.97;;;5.30;99.90;;;;;;5058576;28;20555;-33
2022/03/30 02:11:46;;;;;;;13.10;7.27;;;5.30;99.90;;;;;;5046957;28;20083;-35
2022/03/30 02:14:12;;;;;;;9.10;4.80;;;5.30;99.90;;;;;;5062377;28;20446;-34
2022/03/30 02:16:38;;;;;;;6.87;3.47;;;5.30;99.90;;;;;;5045040;28;20056;-34
2022/03/30 02:19:04;;;;;;;4.93;2.50;;;5.40;99.90;;;;;;5050879;28;20053;-34
2022/03/30 02:21:30;;;;;;;4.37;2.13;;;5.40;99.90;;;;;;5060941;28;20041;-32
2022/03/30 02:23:55;;;;;;;5.70;2.20;;;5.50;99.90;;;;;;5049492;28;20052;-34
2022/03/30 02:26:21;;;;;;;5.17;1.30;;;5.40;99.90;;;;;;5040524;28;20044;-33
2022/03/30 02:28:54;;;;;;;4.37;1.13;;;5.50;99.90;;;;;;5046453;28;20113;-33
2022/03/30 02:31:22;;;;;;;4.13;1.00;;;5.50;99.90;;;;;;5056015;28;20533;-33
2022/03/30 02:33:48;;;;;;;3.63;1.00;;;5.50;99.90;;;;;;5061924;28;20052;-34
2022/03/30 02:36:14;;;;;;;3.57;0.70;;;5.50;99.90;;;;;;5046073;28;20047;-32
2022/03/30 02:38:41;;;;;;;1.97;0.67;;;5.50;99.90;;;;;;5052500;28;20522;-33
2022/03/30 02:41:08;;;;;;;2.57;0.80;;;5.50;99.90;;;;;;5049708;28;20048;-34
2022/03/30 02:43:35;;;;;;;2.93;0.50;;;5.70;99.90;;;;;;5047867;28;20055;-31
2022/03/30 02:46:01;;;;;;;2.93;0.63;;;5.50;99.90;;;;;;5042975;28;20249;-34
2022/03/30 02:48:29;;;;;;;2.10;0.67;;;5.50;99.90;;;;;;5036457;28;20036;-32
2022/03/30 02:51:02;;;;;;;3.30;0.57;;;5.50;99.90;;;;;;5060175;28;20047;-32
2022/03/30 02:53:30;;;;;;;2.10;0.40;;;5.70;99.90;;;;;;5061428;28;20075;-31
2022/03/30 02:55:56;;;;;;;4.30;0.20;;;5.50;99.90;;;;;;5051160;28;20124;-34
2022/03/30 02:58:23;;;;;;;1.97;0.30;;;5.50;99.90;;;;;;5044825;28;20508;-35
2022/03/30 03:00:49;;;;;;;1.13;0.30;;;5.60;99.90;;;;;;5056474;28;20068;-33
2022/03/30 03:03:15;;;;;;;2.27;0.30;;;5.50;99.90;;;;;;5050550;28;20527;-34
2022/03/30 03:05:42;;;;;;;2.40;0.30;;;5.50;99.90;;;;;;5051241;28;20060;-33
2022/03/30 03:08:10;;;;;;;2.20;0.30;;;5.50;99.90;;;;;;5043169;28;20052;-33
2022/03/30 03:10:38;;;;;;;2.03;0.20;;;5.50;99.90;;;;;;5056414;28;20048;-32
2022/03/30 03:13:05;;;;;;;3.17;0.13;;;5.50;99.90;;;;;;5056801;28;20450;-32
2022/03/30 03:15:31;;;;;;;2.93;0.17;;;5.50;99.90;;;;;;5059040;28;20492;-35
2022/03/30 03:17:58;;;;;;;2.50;0.23;;;5.50;99.90;;;;;;5041073;28;20106;-35
2022/03/30 03:20:24;;;;;;;2.27;0.27;;;5.50;99.90;;;;;;5050450;28;20055;-33
2022/03/30 03:22:50;;;;;;;3.87;0.13;;;5.50;99.90;;;;;;5045668;28;20060;-34
2022/03/30 03:25:16;;;;;;;2.27;0.13;;;5.50;99.90;;;;;;5043798;28;20045;-33
2022/03/30 03:27:42;;;;;;;1.50;0.23;;;5.50;99.90;;;;;;5045967;28;20427;-34
2022/03/30 03:30:09;;;;;;;1.50;0.13;;;5.50;99.90;;;;;;5061474;28;20128;-34
2022/03/30 03:32:35;;;;;;;2.37;0.23;;;5.40;99.90;;;;;;5060260;28;20592;-34
2022/03/30 03:35:01;;;;;;;1.90;0.20;;;5.50;99.90;;;;;;5060645;28;20052;-34
2022/03/30 03:37:26;;;;;;;1.83;0.10;;;5.40;99.90;;;;;;5045746;28;20127;-31
2022/03/30 03:39:52;;;;;;;1.57;0.17;;;5.50;99.90;;;;;;5057072;28;20041;-34
2022/03/30 03:42:18;;;;;;;2.27;0.10;;;5.40;99.90;;;;;;5049171;28;20049;-33
2022/03/30 03:44:44;;;;;;;1.07;0.10;;;5.40;99.90;;;;;;5057891;28;20049;-34
2022/03/30 03:47:10;;;;;;;1.23;0.10;;;5.50;99.90;;;;;;5044847;28;20407;-32
2022/03/30 03:49:39;;;;;;;0.53;0.10;;;5.30;99.90;;;;;;5059688;28;20044;-34
2022/03/30 03:52:06;;;;;;;2.13;0.20;;;5.40;99.90;;;;;;5064897;28;20052;-33
2022/03/30 03:54:32;;;;;;;1.27;0.30;;;5.40;99.90;;;;;;5057167;28;20045;-32
2022/03/30 03:56:58;;;;;;;1.83;0.20;;;5.40;99.90;;;;;;5046070;28;20044;-34
2022/03/30 03:59:24;;;;;;;3.50;0.30;;;5.40;99.90;;;;;;5055666;28;20436;-35
2022/03/30 04:01:50;;;;;;;1.50;0.30;;;5.40;99.90;;;;;;5053233;28;20041;-34
2022/03/30 04:04:16;;;;;;;1.13;0.40;;;5.30;99.90;;;;;;5035723;28;20140;-35
2022/03/30 04:06:42;;;;;;;5.57;0.43;;;5.30;99.90;;;;;;5046467;28;20109;-35
2022/03/30 04:09:08;;;;;;;4.03;0.60;;;5.10;99.90;;;;;;5063940;28;20048;-34
2022/03/30 04:11:34;;;;;;;3.53;0.53;;;5.30;99.90;;;;;;5053827;28;20562;-37
2022/03/30 04:14:00;;;;;;;1.60;0.43;;;5.30;99.90;;;;;;5059959;28;20044;-37
2022/03/30 04:16:26;;;;;;;2.93;0.67;;;5.30;99.90;;;;;;5048454;28;20505;-35
2022/03/30 04:18:52;;;;;;;1.63;0.40;;;5.30;99.90;;;;;;5051695;28;20053;-37
2022/03/30 04:21:17;;;;;;;3.10;0.70;;;5.30;99.90;;;;;;5063838;28;20048;-36
2022/03/30 04:23:44;;;;;;;3.57;0.80;;;5.30;99.90;;;;;;5064342;28;20400;-35
2022/03/30 04:26:11;;;;;;;2.60;0.90;;;5.20;99.90;;;;;;5048840;28;20082;-37
2022/03/30 04:28:40;;;;;;;4.73;0.90;;;5.20;99.90;;;;;;5039179;28;20583;-37
2022/03/30 04:31:07;;;;;;;1.97;0.70;;;5.20;99.90;;;;;;5045185;28;20064;-35
2022/03/30 04:33:33;;;;;;;1.93;0.70;;;5.20;99.90;;;;;;5062949;28;20083;-35
2022/03/30 04:35:59;;;;;;;2.13;0.70;;;5.20;99.90;;;;;;5047016;28;20401;-36
2022/03/30 04:38:25;;;;;;;3.33;0.70;;;5.20;99.90;;;;;;5041514;28;20465;-36
2022/03/30 04:40:50;;;;;;;3.47;0.57;;;5.20;99.90;;;;;;5055559;28;20048;-37
2022/03/30 04:43:16;;;;;;;6.43;0.90;;;5.10;99.90;;;;;;5062106;28;20049;-36
2022/03/30 04:45:42;;;;;;;2.73;0.70;;;5.10;99.90;;;;;;5062993;28;20522;-35
2022/03/30 04:48:07;;;;;;;3.07;0.80;;;5.10;99.90;;;;;;5041198;28;20041;-34
2022/03/30 04:50:33;;;;;;;3.43;0.90;;;5.10;99.90;;;;;;5062927;28;20174;-37
2022/03/30 04:52:59;;;;;;;2.30;0.83;;;5.00;99.90;;;;;;5058894;28;20048;-32
2022/03/30 04:55:26;;;;;;;4.90;0.77;;;5.00;99.90;;;;;;5057849;28;20281;-31
2022/03/30 04:57:52;;;;;;;2.07;0.87;;;5.00;99.90;;;;;;5038147;28;20033;-35
2022/03/30 05:00:18;;;;;;;4.33;1.10;;;4.90;99.90;;;;;;5057853;28;20045;-33
2022/03/30 05:02:44;;;;;;;1.87;0.90;;;5.00;99.90;;;;;;5064247;28;20048;-32
2022/03/30 05:05:10;;;;;;;2.17;1.17;;;4.90;99.90;;;;;;5056176;28;20086;-33
2022/03/30 05:07:37;;;;;;;3.63;0.80;;;4.90;99.90;;;;;;5046174;28;21450;-35
2022/03/30 05:10:05;;;;;;;5.83;1.20;;;4.90;99.90;;;;;;5053717;28;20261;-32
2022/03/30 05:12:31;;;;;;;6.73;1.00;;;4.80;99.90;;;;;;5057719;28;20608;-32
2022/03/30 05:14:57;;;;;;;5.43;1.10;;;4.80;99.90;;;;;;5063299;28;20071;-35
2022/03/30 05:17:23;;;;;;;3.57;0.93;;;4.80;99.90;;;;;;5047900;28;21036;-33
2022/03/30 05:19:49;;;;;;;3.57;1.23;;;4.70;99.90;;;;;;5064028;28;20458;-35
2022/03/30 05:22:15;;;;;;;5.07;1.10;;;4.70;99.90;;;;;;5053197;28;20087;-34
2022/03/30 05:24:41;;;;;;;4.60;1.50;;;4.70;99.90;;;;;;5058855;28;20072;-33
2022/03/30 05:27:09;;;;;;;7.90;2.40;;;4.70;99.90;;;;;;5040930;28;20056;-32
2022/03/30 05:29:35;;;;;;;10.47;2.73;;;4.70;99.90;;;;;;5061139;28;20461;-31
2022/03/30 05:32:01;;;;;;;6.57;2.57;;;4.60;99.90;;;;;;5062842;28;20057;-34
2022/03/30 05:34:27;;;;;;;9.90;2.40;;;4.60;99.90;;;;;;5038626;28;20041;-33
2022/03/30 05:36:53;;;;;;;6.87;2.07;;;4.60;99.90;;;;;;5048172;28;20054;-34
2022/03/30 05:39:19;;;;;;;7.13;2.50;;;4.60;99.90;;;;;;5061418;28;20128;-33
2022/03/30 05:41:44;;;;;;;5.20;2.43;;;4.50;99.90;;;;;;5050634;28;20083;-32
2022/03/30 05:44:10;;;;;;;7.07;2.67;;;4.50;99.90;;;;;;5054395;28;20048;-31
2022/03/30 05:46:36;;;;;;;9.30;2.40;;;4.50;99.90;;;;;;5039966;28;20191;-32
2022/03/30 05:49:03;;;;;;;9.10;2.50;;;4.50;99.90;;;;;;5057017;28;20060;-34
2022/03/30 05:51:29;;;;;;;8.30;2.43;;;4.50;99.90;;;;;;5060249;28;20179;-35
2022/03/30 05:53:55;;;;;;;11.13;2.00;;;4.50;99.90;;;;;;5055616;28;20510;-35
2022/03/30 05:57:00;;;;;;;9.70;2.03;;;4.50;99.90;;;;;;5046834;28;20068;-33
2022/03/30 05:59:11;;;;;;;7.30;1.93;;;4.40;99.90;;;;;;5053720;28;20053;-32
2022/03/30 06:01:37;;;;;;;5.10;2.10;;;4.40;99.90;;;;;;5062263;28;20059;-32
2022/03/30 06:04:03;;;;;;;5.87;1.80;;;4.40;99.90;;;;;;5055082;28;20045;-32
2022/03/30 06:06:28;;;;;;;6.97;1.97;;;4.40;99.90;;;;;;5047974;28;20104;-32
2022/03/30 06:08:54;;;;;;;6.33;2.00;;;4.40;99.90;;;;;;5054770;28;20057;-33
2022/03/30 06:11:20;;;;;;;6.73;2.30;;;4.40;99.90;;;;;;5050943;28;20041;-33
2022/03/30 06:13:45;;;;;;;8.50;2.40;;;4.40;99.90;;;;;;5062162;28;20048;-33
2022/03/30 06:16:13;;;;;;;10.70;2.63;;;4.40;99.90;;;;;;5047572;28;20089;-35
2022/03/30 06:18:39;;;;;;;8.93;2.57;;;4.40;99.90;;;;;;5039683;28;20045;-35
2022/03/30 06:21:05;;;;;;;11.10;2.60;;;4.50;99.90;;;;;;5043344;28;20458;-32
2022/03/30 06:23:31;;;;;;;8.47;2.97;;;4.50;99.90;;;;;;5045030;28;20037;-34
2022/03/30 06:25:57;;;;;;;8.73;2.93;;;4.50;99.90;;;;;;5048402;28;20051;-35
2022/03/30 06:28:26;;;;;;;10.90;2.23;;;4.50;99.90;;;;;;5033085;28;20048;-35
2022/03/30 06:30:52;;;;;;;7.23;2.07;;;4.50;99.90;;;;;;5051570;28;20101;-35
2022/03/30 06:33:18;;;;;;;5.40;2.53;;;4.50;99.90;;;;;;5033630;28;20058;-36
2022/03/30 06:35:44;;;;;;;4.40;1.67;;;4.60;99.90;;;;;;5052323;28;20052;-35
2022/03/30 06:38:10;;;;;;;7.00;2.30;;;4.60;99.90;;;;;;5039392;28;20040;-34
2022/03/30 06:40:36;;;;;;;4.80;1.50;;;4.70;99.90;;;;;;5049180;28;20072;-34
2022/03/30 06:43:01;;;;;;;4.47;1.70;;;4.60;99.90;;;;;;5051030;28;20075;-34
2022/03/30 06:45:27;;;;;;;9.70;2.03;;;4.70;99.90;;;;;;5047234;28;20040;-34
2022/03/30 06:47:53;;;;;;;7.53;2.10;;;4.70;99.90;;;;;;5034564;28;20410;-35
2022/03/30 06:50:19;;;;;;;10.90;2.30;;;4.90;99.90;;;;;;5049034;28;20055;-34
2022/03/30 06:52:46;;;;;;;3.90;1.70;;;4.80;99.90;;;;;;5043929;28;20045;-33
2022/03/30 06:55:14;;;;;;;5.53;1.63;;;4.80;99.90;;;;;;5050425;28;20055;-34
2022/03/30 06:57:40;;;;;;;5.27;2.30;;;4.90;99.90;;;;;;5038184;28;20052;-34
2022/03/30 07:00:06;;;;;;;5.73;1.97;;;5.00;99.90;;;;;;5051259;28;20452;-33
2022/03/30 07:02:32;;;;;;;6.00;1.93;;;4.90;99.90;;;;;;5053792;28;20442;-33
2022/03/30 07:04:58;;;;;;;9.00;2.73;;;5.00;99.90;;;;;;5052152;28;20051;-34
2022/03/30 07:10:15;;;;;;;7.57;1.90;;;5.00;99.90;;;;;;5051726;28;20037;-33
2022/03/30 07:12:41;;;;;;;5.83;2.00;;;5.10;99.90;;;;;;5045510;28;20056;-36
2022/03/30 07:15:07;;;;;;;6.73;1.80;;;5.10;99.90;;;;;;5047081;28;20060;-33
2022/03/30 07:17:33;;;;;;;5.23;1.77;;;5.10;99.90;;;;;;5031948;28;20135;-36
2022/03/30 07:19:59;;;;;;;4.87;1.73;;;5.30;99.90;;;;;;5061599;28;20516;-36
2022/03/30 07:22:26;;;;;;;8.43;1.93;;;5.20;99.90;;;;;;5057438;28;20044;-33
2022/03/30 07:24:51;;;;;;;6.73;1.70;;;5.30;99.90;;;;;;5057146;28;20045;-35
2022/03/30 07:27:17;;;;;;;5.37;1.60;;;5.40;99.90;;;;;;5041548;28;20048;-34
2022/03/30 07:29:43;;;;;;;6.00;1.80;;;5.40;99.90;;;;;;5061339;28;20068;-36
2022/03/30 07:32:10;;;;;;;6.63;1.40;;;5.40;99.90;;;;;;5057500;28;20052;-36
2022/03/30 07:34:36;;;;;;;5.03;1.70;;;5.40;99.90;;;;;;5060478;28;20057;-34
2022/03/30 07:37:03;;;;;;;6.47;1.40;;;5.50;99.90;;;;;;5046068;28;20044;-34
2022/03/30 07:39:29;;;;;;;8.73;2.20;;;5.50;99.90;;;;;;5056833;28;20051;-35
2022/03/30 07:41:55;;;;;;;7.03;1.40;;;5.50;99.90;;;;;;5057629;28;20063;-32
2022/03/30 07:44:20;;;;;;;3.87;1.40;;;5.60;99.90;;;;;;5061195;28;20542;-35
2022/03/30 07:46:48;;;;;;;3.80;1.13;;;5.60;99.90;;;;;;5038578;28;20057;-34
2022/03/30 07:49:15;;;;;;;10.17;1.30;;;5.60;99.90;;;;;;5050006;28;20039;-33
2022/03/30 07:51:41;;;;;;;5.73;0.97;;;5.70;99.90;;;;;;5050529;28;20049;-36
2022/03/30 07:54:07;;;;;;;6.00;0.90;;;5.70;99.90;;;;;;5056010;28;20057;-33
2022/03/30 07:56:33;;;;;;;10.13;0.97;;;5.70;99.90;;;;;;5041756;28;20336;-35
2022/03/30 07:59:00;;;;;;;6.43;0.90;;;5.70;99.90;;;;;;5055828;28;20052;-35
2022/03/30 08:01:26;;;;;;;7.30;0.90;;;5.80;99.90;;;;;;5056871;28;20325;-35
2022/03/30 08:03:52;;;;;;;5.33;0.83;;;5.80;99.90;;;;;;5045871;28;20045;-33
2022/03/30 08:06:18;;;;;;;5.20;0.87;;;5.80;99.90;;;;;;5036300;28;20098;-35
2022/03/30 08:08:43;;;;;;;4.70;0.90;;;5.80;99.90;;;;;;5042719;28;20660;-36
2022/03/30 08:11:09;;;;;;;5.77;1.07;;;5.90;99.90;;;;;;5046386;28;20076;-34
2022/03/30 08:13:35;;;;;;;9.20;1.27;;;5.90;99.90;;;;;;5043029;28;20067;-35
2022/03/30 08:16:02;;;;;;;4.67;0.67;;;5.90;99.90;;;;;;5061440;28;20477;-35
2022/03/30 08:18:28;;;;;;;7.13;0.90;;;6.00;99.90;;;;;;5043651;28;20048;-35
2022/03/30 08:23:38;;;;;;;3.93;0.80;;;6.00;99.90;;;;;;5057967;28;20468;-34
2022/03/30 08:26:04;;;;;;;5.17;0.63;;;6.10;99.90;;;;;;5050765;28;20056;-36
2022/03/30 08:28:30;;;;;;;3.53;0.80;;;6.10;99.90;;;;;;5044444;28;20098;-33
2022/03/30 08:30:57;;;;;;;6.40;1.00;;;6.20;99.90;;;;;;5054979;28;20048;-35
2022/03/30 08:33:26;;;;;;;4.77;0.70;;;6.20;99.90;;;;;;5059017;28;20036;-33
2022/03/30 08:35:53;;;;;;;3.83;0.80;;;6.40;99.90;;;;;;5047596;28;20112;-35
2022/03/30 08:38:19;;;;;;;5.00;0.90;;;6.30;99.90;;;;;;5039275;28;20317;-36
2022/03/30 08:40:45;;;;;;;6.70;0.83;;;6.30;99.90;;;;;;5060052;28;20121;-34
2022/03/30 08:43:11;;;;;;;4.87;0.63;;;6.40;99.90;;;;;;5060991;28;20068;-36
2022/03/30 08:45:37;;;;;;;6.57;0.70;;;6.40;99.90;;;;;;5064186;28;20044;-35
2022/03/30 08:48:02;;;;;;;3.73;0.60;;;6.40;99.90;;;;;;5040702;28;20053;-35
2022/03/30 08:50:28;;;;;;;3.07;0.73;;;6.40;99.90;;;;;;5057500;28;20122;-34
2022/03/30 08:52:56;;;;;;;6.73;0.57;;;6.50;99.90;;;;;;5052929;28;20384;-32
2022/03/30 08:55:22;;;;;;;2.90;0.40;;;6.50;99.90;;;;;;5055260;28;20044;-33
2022/03/30 08:57:48;;;;;;;2.90;0.43;;;6.50;99.90;;;;;;5041873;28;20041;-34
2022/03/30 09:00:17;;;;;;;7.33;0.50;;;6.50;99.90;;;;;;5063596;28;20044;-34
2022/03/30 09:02:45;;;;;;;6.80;0.83;;;6.50;99.90;;;;;;5058634;28;20058;-35
2022/03/30 09:05:24;;;;;;;3.03;0.40;;;6.60;99.90;;;;;;5058437;28;20136;-37
2022/03/30 09:07:54;;;;;;;3.20;0.30;;;6.60;99.90;;;;;;5045317;28;20419;-37
2022/03/30 09:10:30;;;;;;;5.37;0.50;;;6.60;99.90;;;;;;5055612;28;20053;-36
2022/03/30 09:12:56;;;;;;;4.87;0.80;;;6.60;99.90;;;;;;5047933;28;20149;-37
2022/03/30 09:15:23;;;;;;;3.07;0.50;;;6.70;99.90;;;;;;5064007;28;20139;-35
2022/03/30 09:17:49;;;;;;;4.03;0.43;;;6.70;99.90;;;;;;5045954;28;20387;-35
2022/03/30 09:20:20;;;;;;;4.50;0.73;;;6.80;99.90;;;;;;5063274;28;20040;-38
2022/03/30 09:22:49;;;;;;;4.13;0.70;;;6.80;99.90;;;;;;5056024;28;20041;-37
2022/03/30 09:25:16;;;;;;;4.30;0.60;;;6.90;99.90;;;;;;5058856;28;20082;-34
2022/03/30 09:27:44;;;;;;;2.93;0.60;;;6.80;99.90;;;;;;5047765;28;20040;-36
2022/03/30 09:30:14;;;;;;;4.33;0.67;;;6.90;99.90;;;;;;5060220;28;20519;-36
2022/03/30 09:32:42;;;;;;;4.37;0.53;;;6.80;99.90;;;;;;5062269;28;20399;-37
2022/03/30 09:35:27;;;;;;;4.03;0.50;;;6.80;99.90;;;;;;5063730;28;20085;-37
2022/03/30 09:38:03;;;;;;;4.13;0.57;;;6.90;99.90;;;;;;5048077;28;20195;-37
2022/03/30 09:40:43;;;;;;;4.13;0.40;;;6.90;99.90;;;;;;5059496;28;20041;-33
2022/03/30 09:43:18;;;;;;;4.73;0.60;;;7.00;99.90;;;;;;5058485;28;20059;-37
2022/03/30 09:45:44;;;;;;;4.00;0.50;;;7.00;99.90;;;;;;5063719;28;20084;-38
2022/03/30 09:48:22;;;;;;;4.33;0.50;;;7.20;99.90;;;;;;5046253;28;20102;-37
2022/03/30 09:50:54;;;;;;;2.87;0.70;;;7.10;99.90;;;;;;5058685;28;20131;-35
2022/03/30 09:53:21;;;;;;;;;;;7.20;99.90;;;;;;5062228;28;20049;-37
2022/03/30 09:56:03;;;;;;;4.20;0.60;;;7.20;99.90;;;;;;5049939;28;19932;-33
2022/03/30 09:58:37;;;;;;;6.32;1.02;;;7.30;99.90;;;;;;5041176;28;20102;-33
2022/03/30 10:01:13;;;;;;;1.73;0.60;;;7.30;99.90;;;;;;5047430;28;20052;-33
2022/03/30 10:03:53;;;;;;;3.53;0.57;;;7.40;99.90;;;;;;5052121;28;20052;-34
2022/03/30 10:06:26;;;;;;;5.87;0.57;;;7.40;99.90;;;;;;5050271;28;20048;-35
2022/03/30 10:08:53;;;;;;;6.30;0.70;;;7.50;99.90;;;;;;5052209;28;20056;-36
2022/03/30 10:11:21;;;;;;;2.50;0.43;;;7.50;99.90;;;;;;5058516;28;20048;-36
2022/03/30 10:13:53;;;;;;;5.20;0.80;;;7.60;99.90;;;;;;5060930;28;20166;-35
2022/03/30 10:16:20;;;;;;;3.60;0.47;;;7.70;99.90;;;;;;5051506;28;20507;-35
2022/03/30 10:18:48;;;;;;;5.80;0.40;;;7.70;99.90;;;;;;5052104;28;20061;-35
2022/03/30 10:21:41;;;;;;;2.20;0.33;;;7.80;99.90;;;;;;5063843;28;20388;-36
2022/03/30 10:24:28;;;;;;;3.50;0.70;;;7.80;99.90;;;;;;5054939;28;20503;-36
2022/03/30 10:27:03;;;;;;;4.33;0.50;;;7.80;99.90;;;;;;5044900;28;20526;-36
2022/03/30 10:29:30;;;;;;;3.23;0.40;;;7.80;99.90;;;;;;5062093;28;20545;-35
2022/03/30 10:32:13;;;;;;;1.43;0.20;;;7.80;99.90;;;;;;5062704;28;20052;-35
2022/03/30 10:34:53;;;;;;;3.13;0.30;;;7.80;99.90;;;;;;5051903;28;20072;-33
2022/03/30 10:37:27;;;;;;;4.37;0.60;;;7.90;99.90;;;;;;5045710;28;20499;-35
2022/03/30 10:40:00;;;;;;;3.97;0.50;;;7.90;99.90;;;;;;5058532;28;20044;-35
2022/03/30 10:42:25;;;;;;;4.33;0.50;;;7.90;99.90;;;;;;5061965;28;20119;-35
2022/03/30 10:44:59;;;;;;;3.43;0.67;;;7.90;99.90;;;;;;5061882;28;20484;-36
2022/03/30 10:47:27;;;;;;;3.63;0.40;;;7.90;99.90;;;;;;5045157;28;20055;-35
2022/03/30 10:50:00;;;;;;;4.60;0.63;;;7.90;99.90;;;;;;5059214;28;20052;-34
2022/03/30 10:52:44;;;;;;;4.90;0.83;;;7.90;99.90;;;;;;5059026;28;20044;-33
2022/03/30 10:55:12;;;;;;;7.10;0.80;;;7.80;99.90;;;;;;5061603;28;20044;-35
2022/03/30 10:57:58;;;;;;;3.83;0.67;;;7.80;99.90;;;;;;5040008;28;20044;-36
2022/03/30 11:00:36;;;;;;;5.27;0.67;;;7.80;99.90;;;;;;5057270;28;20048;-35
2022/03/30 11:03:26;;;;;;;5.10;0.70;;;7.90;99.90;;;;;;5053282;28;20079;-35
2022/03/30 11:05:59;;;;;;;5.00;0.90;;;7.90;99.90;;;;;;5052948;28;20439;-33
2022/03/30 11:08:34;;;;;;;2.90;0.60;;;7.90;99.90;;;;;;5033223;28;20045;-36
2022/03/30 11:11:42;;;;;;;3.53;0.47;;;7.90;99.90;;;;;;5060234;28;20519;-33
2022/03/30 11:14:34;;;;;;;4.37;0.67;;;8.00;99.90;;;;;;5058150;28;20087;-34
2022/03/30 11:17:14;;;;;;;4.45;0.80;;;8.00;99.90;;;;;;5042856;28;20059;-36
2022/03/30 11:19:57;;;;;;;5.30;0.60;;;8.10;99.90;;;;;;5038308;28;20486;-36
2022/03/30 11:22:29;;;;;;;3.13;0.60;;;8.10;99.90;;;;;;5042898;28;20057;-35
2022/03/30 11:25:09;;;;;;;7.13;0.80;;;8.20;99.90;;;;;;5060061;28;20049;-36
2022/03/30 11:27:35;;;;;;;2.23;0.50;;;8.30;99.90;;;;;;5038666;28;20423;-34
2022/03/30 11:30:05;;;;;;;6.23;0.70;;;8.30;99.90;;;;;;5059151;28;20206;-35
2022/03/30 11:32:53;;;;;;;6.97;0.60;;;8.30;99.90;;;;;;5060918;28;20377;-35
2022/03/30 11:35:21;;;;;;;6.50;0.70;;;8.30;99.90;;;;;;5060937;28;20144;-34
2022/03/30 11:38:02;;;;;;;5.00;0.90;;;8.50;99.90;;;;;;5042259;28;20049;-34
2022/03/30 11:40:27;;;;;;;3.60;0.50;;;8.30;99.90;;;;;;5058162;28;20618;-33
2022/03/30 11:42:58;;;;;;;2.77;0.60;;;8.30;99.90;;;;;;5055496;28;20091;-36
2022/03/30 11:45:26;;;;;;;3.47;0.90;;;8.30;99.90;;;;;;5046864;28;20102;-36
2022/03/30 11:47:58;;;;;;;4.33;0.67;;;8.40;99.90;;;;;;5031384;28;20076;-34
2022/03/30 11:50:31;;;;;;;3.20;0.77;;;8.40;99.90;;;;;;5048482;28;20060;-35
2022/03/30 11:53:02;;;;;;;3.67;0.80;;;8.40;99.90;;;;;;5046475;28;20052;-38
2022/03/30 11:55:30;;;;;;;3.78;0.68;;;8.40;99.90;;;;;;5050461;28;20051;-34
2022/03/30 11:57:58;;;;;;;5.63;0.80;;;8.50;99.90;;;;;;5032402;28;20052;-36
2022/03/30 12:00:27;;;;;;;10.33;1.00;;;8.50;99.90;;;;;;5051411;28;20130;-35
2022/03/30 12:02:56;;;;;;;2.47;0.50;;;8.60;99.90;;;;;;5049005;28;20376;-35
2022/03/30 12:05:22;;;;;;;4.07;0.80;;;8.50;99.90;;;;;;5055466;28;20049;-34
2022/03/30 12:07:56;;;;;;;4.40;0.77;;;8.50;99.90;;;;;;5048763;28;20115;-34
2022/03/30 12:10:27;;;;;;;4.53;0.73;;;8.40;99.90;;;;;;5054557;28;20045;-33
2022/03/30 12:12:53;;;;;;;2.75;0.65;;;8.60;99.90;;;;;;5053961;28;20068;-36
2022/03/30 12:15:20;;;;;;;3.97;0.50;;;8.60;99.90;;;;;;5064879;28;20483;-37
2022/03/30 12:17:51;;;;;;;7.13;0.80;;;8.60;99.90;;;;;;5045461;28;20110;-37
2022/03/30 12:20:34;;;;;;;3.15;0.68;;;8.50;99.90;;;;;;5057607;28;20067;-35
2022/03/30 12:23:02;;;;;;;5.53;0.50;;;8.50;99.90;;;;;;5056415;28;20060;-35
2022/03/30 12:25:31;;;;;;;6.00;0.90;;;8.40;99.90;;;;;;5063664;28;20033;-36
2022/03/30 12:27:57;;;;;;;6.03;0.63;;;8.40;99.90;;;;;;5048801;28;20049;-34
2022/03/30 12:30:24;;;;;;;7.00;0.80;;;8.40;99.90;;;;;;5060511;28;20060;-32
2022/03/30 12:32:51;;;;;;;4.80;1.00;;;8.30;99.90;;;;;;5057243;28;20047;-33
2022/03/30 12:35:18;;;;;;;5.10;0.80;;;8.40;99.90;;;;;;5065227;28;20048;-34
2022/03/30 12:37:46;;;;;;;4.67;0.67;;;8.30;99.90;;;;;;5047254;28;20052;-35
2022/03/30 12:40:18;;;;;;;3.47;0.80;;;8.20;99.90;;;;;;5054232;28;20060;-36
2022/03/30 12:42:45;;;;;;;4.03;0.60;;;8.30;99.90;;;;;;5060768;28;20099;-36
2022/03/30 12:45:14;;;;;;;7.47;0.80;;;8.20;99.90;;;;;;5059387;28;20423;-35
2022/03/30 12:47:46;;;;;;;2.83;0.43;;;8.50;99.90;;;;;;5046749;28;20415;-34
2022/03/30 12:50:23;;;;;;;2.97;0.50;;;8.40;99.90;;;;;;5056190;28;20059;-36
2022/03/30 12:52:52;;;;;;;3.43;0.67;;;8.50;99.90;;;;;;5055652;28;20416;-36
2022/03/30 12:55:26;;;;;;;8.33;1.90;;;8.50;99.90;;;;;;5053794;28;20040;-36
2022/03/30 12:57:58;;;;;;;4.27;0.67;;;8.60;99.90;;;;;;5046956;28;20229;-34
2022/03/30 13:00:40;;;;;;;6.03;0.60;;;8.60;99.90;;;;;;5062052;28;20044;-37
2022/03/30 13:03:15;;;;;;;3.53;0.60;;;8.60;99.90;;;;;;5060401;28;20534;-36
2022/03/30 13:05:43;;;;;;;3.20;0.60;;;8.70;99.90;;;;;;5055092;28;20592;-36
2022/03/30 13:08:10;;;;;;;4.17;0.67;;;8.80;99.90;;;;;;5036737;28;20045;-35